Time;durP1;ratioP1;P1;durP2;ratioP2;P2;SDS_P1;SDS_P2;PMS_P1;PMS_P2;Temp;Humidity;BMP_temperature;BMP_pressure;BME280_temperature;BME280_humidity;BME280_pressure;Samples;Min_cycle;Max_cycle;Signal;HPM_P1;HPM_P2
2022/10/03 00:00:00;;;;;;;10.20;2.93;;;;;;;;;;5051625;28;20224;-48
2022/10/03 00:02:33;;;;;;;15.50;3.57;;;;;;;;;;5051725;28;20196;-48
2022/10/03 00:05:09;;;;;;;11.33;3.37;;;;;;;;;;5051567;28;20216;-48
2022/10/03 00:07:42;;;;;;;15.07;3.90;;;;;;;;;;5051471;28;20234;-48
2022/10/03 00:10:14;;;;;;;11.90;3.10;;;;;;;;;;5051391;28;20199;-48
2022/10/03 00:12:46;;;;;;;13.77;3.63;;;;;;;;;;5051823;28;20204;-47
2022/10/03 00:15:15;;;;;;;14.20;3.60;;;;;;;;;;5051458;28;20197;-47
2022/10/03 00:17:43;;;;;;;11.70;3.23;;;;;;;;;;5051458;28;20201;-47
2022/10/03 00:20:16;;;;;;;14.63;3.23;;;;;;;;;;5051323;28;20232;-47
2022/10/03 00:22:47;;;;;;;11.13;3.17;;;;;;;;;;5052455;28;20233;-47
2022/10/03 00:25:20;;;;;;;9.13;2.57;;;;;;;;;;5055278;28;20208;-47
2022/10/03 00:27:47;;;;;;;15.20;3.83;;;;;;;;;;5055460;28;20198;-47
2022/10/03 00:30:16;;;;;;;18.07;3.83;;;;;;;;;;5055161;28;20200;-47
2022/10/03 00:32:48;;;;;;;9.73;3.27;;;;;;;;;;5055102;28;20258;-47
2022/10/03 00:35:21;;;;;;;12.70;3.30;;;;;;;;;;5055190;28;20298;-47
2022/10/03 00:38:01;;;;;;;13.57;3.03;;;;;;;;;;5055214;28;20254;-47
2022/10/03 00:40:44;;;;;;;13.60;2.90;;;;;;;;;;5055239;28;20279;-47
2022/10/03 00:43:26;;;;;;;11.47;3.13;;;;;;;;;;5055237;28;20192;-47
2022/10/03 00:46:15;;;;;;;15.50;3.63;;;;;;;;;;5055098;28;20208;-47
2022/10/03 00:48:53;;;;;;;16.00;3.07;;;;;;;;;;5055047;28;20192;-47
2022/10/03 00:51:25;;;;;;;9.03;2.87;;;;;;;;;;5054902;28;20291;-47
2022/10/03 00:54:03;;;;;;;7.40;2.67;;;;;;;;;;5054838;28;20547;-47
2022/10/03 00:56:36;;;;;;;13.67;3.07;;;;;;;;;;5054905;28;20196;-47
2022/10/03 00:59:12;;;;;;;10.07;2.97;;;;;;;;;;5054613;28;20226;-47
2022/10/03 01:01:42;;;;;;;10.83;2.90;;;;;;;;;;5054736;28;20689;-47
2022/10/03 01:04:18;;;;;;;11.33;3.57;;;;;;;;;;5054598;28;20196;-47
2022/10/03 01:06:46;;;;;;;7.97;3.70;;;;;;;;;;5054672;28;20196;-47
2022/10/03 01:09:19;;;;;;;14.90;3.20;;;;;;;;;;5054244;28;20223;-47
2022/10/03 01:11:52;;;;;;;13.67;3.97;;;;;;;;;;5054684;28;20200;-47
2022/10/03 01:14:24;;;;;;;10.17;3.07;;;;;;;;;;5054451;28;20611;-47
2022/10/03 01:16:57;;;;;;;12.13;3.23;;;;;;;;;;5054508;28;20200;-47
2022/10/03 01:19:44;;;;;;;11.90;3.50;;;;;;;;;;5054364;28;20310;-47
2022/10/03 01:22:20;;;;;;;12.03;3.07;;;;;;;;;;5054340;28;20279;-47
2022/10/03 01:24:53;;;;;;;12.37;3.33;;;;;;;;;;5054399;28;20203;-47
2022/10/03 01:27:25;;;;;;;13.67;3.53;;;;;;;;;;5054179;28;20228;-47
2022/10/03 01:32:43;;;;;;;13.60;3.20;;;;;;;;;;5054213;28;20327;-47
2022/10/03 01:35:14;;;;;;;14.93;3.17;;;;;;;;;;5053647;28;20200;-48
2022/10/03 01:37:46;;;;;;;13.73;3.03;;;;;;;;;;5054180;28;20576;-47
2022/10/03 01:40:17;;;;;;;12.80;3.73;;;;;;;;;;5054044;28;20224;-47
2022/10/03 01:42:46;;;;;;;9.90;3.13;;;;;;;;;;5053990;28;20591;-47
2022/10/03 01:45:24;;;;;;;8.20;3.20;;;;;;;;;;5053934;28;20259;-48
2022/10/03 01:47:54;;;;;;;10.20;3.30;;;;;;;;;;5054082;28;20211;-47
2022/10/03 01:50:24;;;;;;;14.07;3.70;;;;;;;;;;5053910;28;20332;-47
2022/10/03 01:52:53;;;;;;;9.63;2.90;;;;;;;;;;5053791;28;20200;-47
2022/10/03 01:55:22;;;;;;;15.00;3.20;;;;;;;;;;5053664;28;20199;-47
2022/10/03 01:57:53;;;;;;;10.47;3.13;;;;;;;;;;5053737;28;20254;-47
2022/10/03 02:00:23;;;;;;;10.37;3.37;;;;;;;;;;5053500;28;20219;-47
2022/10/03 02:02:52;;;;;;;6.13;2.83;;;;;;;;;;5053574;28;20201;-48
2022/10/03 02:05:22;;;;;;;15.90;4.03;;;;;;;;;;5053587;28;20291;-48
2022/10/03 02:07:51;;;;;;;12.23;3.30;;;;;;;;;;5053285;28;20573;-47
2022/10/03 02:10:24;;;;;;;13.63;3.60;;;;;;;;;;5053379;28;20193;-47
2022/10/03 02:12:54;;;;;;;12.90;3.50;;;;;;;;;;5053577;28;20612;-47
2022/10/03 02:15:24;;;;;;;11.30;3.07;;;;;;;;;;5053452;28;20554;-48
2022/10/03 02:17:54;;;;;;;16.67;4.47;;;;;;;;;;5053316;28;20200;-48
2022/10/03 02:20:24;;;;;;;11.27;3.00;;;;;;;;;;5053028;28;20271;-46
2022/10/03 02:22:52;;;;;;;11.57;3.53;;;;;;;;;;5053454;28;20193;-47
2022/10/03 02:25:24;;;;;;;15.43;3.63;;;;;;;;;;5053020;28;20207;-46
2022/10/03 02:28:20;;;;;;;11.57;3.03;;;;;;;;;;5052986;28;20195;-47
2022/10/03 02:30:56;;;;;;;7.53;2.83;;;;;;;;;;4972224;28;20206;-46
2022/10/03 02:33:31;;;;;;;9.83;2.80;;;;;;;;;;5019104;28;20201;-46
2022/10/03 02:36:15;;;;;;;15.43;3.80;;;;;;;;;;5033074;28;20200;-46
2022/10/03 02:38:58;;;;;;;11.37;3.67;;;;;;;;;;5032935;28;20554;-47
2022/10/03 02:41:38;;;;;;;15.57;3.77;;;;;;;;;;5032757;28;20567;-49
2022/10/03 02:44:19;;;;;;;17.27;3.77;;;;;;;;;;5032911;28;20667;-46
2022/10/03 02:47:04;;;;;;;13.93;3.20;;;;;;;;;;4999211;28;20267;-47
2022/10/03 02:49:55;;;;;;;9.70;3.47;;;;;;;;;;5032945;28;20225;-47
2022/10/03 02:52:31;;;;;;;16.17;3.90;;;;;;;;;;5032515;28;20232;-46
2022/10/03 02:55:11;;;;;;;11.23;3.63;;;;;;;;;;5032604;28;20206;-46
2022/10/03 02:57:52;;;;;;;15.57;4.30;;;;;;;;;;5032838;28;20196;-47
2022/10/03 03:00:19;;;;;;;12.73;3.83;;;;;;;;;;5032553;28;20309;-46
2022/10/03 03:02:54;;;;;;;13.23;3.70;;;;;;;;;;5032409;28;20201;-46
2022/10/03 03:05:40;;;;;;;10.70;3.50;;;;;;;;;;5032613;28;20215;-47
2022/10/03 03:08:17;;;;;;;11.03;3.07;;;;;;;;;;5032224;28;20247;-47
2022/10/03 03:11:07;;;;;;;12.30;3.17;;;;;;;;;;5032482;28;20211;-47
2022/10/03 03:13:46;;;;;;;15.13;3.60;;;;;;;;;;4976632;28;20203;-48
2022/10/03 03:16:32;;;;;;;9.53;3.17;;;;;;;;;;5032204;28;20664;-48
2022/10/03 03:19:10;;;;;;;12.87;3.40;;;;;;;;;;5032141;28;20220;-47
2022/10/03 03:21:41;;;;;;;11.63;3.63;;;;;;;;;;5032212;28;20213;-48
2022/10/03 03:24:15;;;;;;;11.80;3.23;;;;;;;;;;5032024;28;20201;-46
2022/10/03 03:26:49;;;;;;;12.90;3.67;;;;;;;;;;5032195;28;20200;-48
2022/10/03 03:29:20;;;;;;;8.80;2.93;;;;;;;;;;5032125;28;20203;-48
2022/10/03 03:31:53;;;;;;;10.87;3.87;;;;;;;;;;5039415;28;20602;-46
2022/10/03 03:34:22;;;;;;;14.60;3.33;;;;;;;;;;5051893;28;20203;-47
2022/10/03 03:36:53;;;;;;;9.97;3.20;;;;;;;;;;5051947;28;20254;-46
2022/10/03 03:39:28;;;;;;;9.20;3.60;;;;;;;;;;5051746;28;20266;-46
2022/10/03 03:41:59;;;;;;;10.63;3.30;;;;;;;;;;5051976;28;20203;-47
2022/10/03 03:44:36;;;;;;;10.93;3.03;;;;;;;;;;5051745;28;20658;-48
2022/10/03 03:47:09;;;;;;;8.93;2.90;;;;;;;;;;5051682;28;20192;-47
2022/10/03 03:49:46;;;;;;;9.30;3.10;;;;;;;;;;5051795;28;20184;-48
2022/10/03 03:52:27;;;;;;;8.70;3.73;;;;;;;;;;5051666;28;20270;-47
2022/10/03 03:54:58;;;;;;;9.57;3.20;;;;;;;;;;5051675;28;20705;-47
2022/10/03 03:57:43;;;;;;;11.47;3.53;;;;;;;;;;5051475;28;20207;-47
2022/10/03 04:00:14;;;;;;;12.37;3.70;;;;;;;;;;5051598;28;20227;-48
2022/10/03 04:02:47;;;;;;;8.73;3.20;;;;;;;;;;5051470;28;20636;-47
2022/10/03 04:05:19;;;;;;;13.80;3.47;;;;;;;;;;5051654;28;20197;-47
2022/10/03 04:07:56;;;;;;;10.37;2.97;;;;;;;;;;5051597;28;20224;-47
2022/10/03 04:10:30;;;;;;;13.17;3.13;;;;;;;;;;5051428;28;20603;-47
2022/10/03 04:13:15;;;;;;;12.03;2.90;;;;;;;;;;5051554;28;20220;-47
2022/10/03 04:15:58;;;;;;;12.97;3.10;;;;;;;;;;5051559;28;20631;-47
2022/10/03 04:18:58;;;;;;;13.03;4.17;;;;;;;;;;5051343;28;20211;-47
2022/10/03 04:21:35;;;;;;;9.90;3.10;;;;;;;;;;5051345;28;20238;-47
2022/10/03 04:24:08;;;;;;;9.87;2.90;;;;;;;;;;5051592;28;20549;-47
2022/10/03 04:26:41;;;;;;;8.93;3.17;;;;;;;;;;5051317;28;20262;-47
2022/10/03 04:29:22;;;;;;;9.97;2.80;;;;;;;;;;5051286;28;20212;-47
2022/10/03 04:31:54;;;;;;;9.23;2.80;;;;;;;;;;5051186;28;20236;-47
2022/10/03 04:34:25;;;;;;;8.13;2.70;;;;;;;;;;5051279;28;20560;-47
2022/10/03 04:37:07;;;;;;;11.13;3.13;;;;;;;;;;5051253;28;20709;-47
2022/10/03 04:39:39;;;;;;;10.07;2.73;;;;;;;;;;5048591;28;20275;-47
2022/10/03 04:42:11;;;;;;;8.93;2.90;;;;;;;;;;5051251;28;20200;-47
2022/10/03 04:44:42;;;;;;;9.57;2.83;;;;;;;;;;5051454;28;20739;-47
2022/10/03 04:47:14;;;;;;;6.17;2.90;;;;;;;;;;5051143;28;20200;-47
2022/10/03 04:49:43;;;;;;;7.13;2.50;;;;;;;;;;5051223;28;20195;-47
2022/10/03 04:52:15;;;;;;;13.13;3.30;;;;;;;;;;5050954;28;20279;-47
2022/10/03 04:54:47;;;;;;;9.53;3.10;;;;;;;;;;5051211;28;20220;-47
2022/10/03 04:57:20;;;;;;;10.27;2.57;;;;;;;;;;5051025;28;20379;-47
2022/10/03 04:59:49;;;;;;;13.27;3.60;;;;;;;;;;5051056;28;20315;-47
2022/10/03 05:02:25;;;;;;;10.97;3.63;;;;;;;;;;5050947;28;20200;-47
2022/10/03 05:05:03;;;;;;;11.17;3.10;;;;;;;;;;5051055;28;20196;-47
2022/10/03 05:07:32;;;;;;;9.17;3.20;;;;;;;;;;5050886;28;20211;-47
2022/10/03 05:10:02;;;;;;;8.00;2.53;;;;;;;;;;5053775;28;20293;-47
2022/10/03 05:12:31;;;;;;;7.43;2.90;;;;;;;;;;5054555;28;20215;-47
2022/10/03 05:15:04;;;;;;;10.20;3.43;;;;;;;;;;5054484;28;20576;-47
2022/10/03 05:17:36;;;;;;;9.67;3.43;;;;;;;;;;5054682;28;20279;-47
2022/10/03 05:20:21;;;;;;;11.20;3.20;;;;;;;;;;5054304;28;20228;-47
2022/10/03 05:22:52;;;;;;;11.27;3.93;;;;;;;;;;5054372;28;20196;-47
2022/10/03 05:25:28;;;;;;;11.77;3.47;;;;;;;;;;5054187;28;20649;-47
2022/10/03 05:27:58;;;;;;;13.63;3.33;;;;;;;;;;5054359;28;20204;-47
2022/10/03 05:30:34;;;;;;;11.13;3.50;;;;;;;;;;5054093;28;20659;-47
2022/10/03 05:33:03;;;;;;;12.97;3.60;;;;;;;;;;5054169;28;20235;-47
2022/10/03 05:35:31;;;;;;;13.13;3.60;;;;;;;;;;5054249;28;20227;-47
2022/10/03 05:38:18;;;;;;;11.70;4.10;;;;;;;;;;5054003;28;20200;-47
2022/10/03 05:40:50;;;;;;;9.23;3.63;;;;;;;;;;5047550;28;20697;-47
2022/10/03 05:43:24;;;;;;;18.87;4.33;;;;;;;;;;5053859;28;20211;-47
2022/10/03 05:45:54;;;;;;;11.97;3.50;;;;;;;;;;5054013;28;20192;-47
2022/10/03 05:48:28;;;;;;;12.03;3.30;;;;;;;;;;5053887;28;20196;-47
2022/10/03 05:51:12;;;;;;;12.10;3.80;;;;;;;;;;5054122;28;20242;-47
2022/10/03 05:53:45;;;;;;;12.57;3.50;;;;;;;;;;5038531;28;20714;-47
2022/10/03 05:56:19;;;;;;;9.53;3.47;;;;;;;;;;5053788;28;20213;-47
2022/10/03 05:58:55;;;;;;;8.87;3.67;;;;;;;;;;5053690;28;20200;-47
2022/10/03 06:01:39;;;;;;;10.83;3.20;;;;;;;;;;5053580;28;20214;-47
2022/10/03 06:04:14;;;;;;;15.67;3.53;;;;;;;;;;5040256;28;20266;-47
2022/10/03 06:06:48;;;;;;;12.67;3.27;;;;;;;;;;5053476;28;20736;-47
2022/10/03 06:09:31;;;;;;;13.50;3.50;;;;;;;;;;5053387;28;20614;-47
2022/10/03 06:12:01;;;;;;;12.77;4.00;;;;;;;;;;5013411;28;20243;-47
2022/10/03 06:14:34;;;;;;;17.07;3.17;;;;;;;;;;5053253;28;20566;-47
2022/10/03 06:17:11;;;;;;;16.77;3.80;;;;;;;;;;5053463;28;20220;-47
2022/10/03 06:19:45;;;;;;;10.03;3.13;;;;;;;;;;5052878;28;20300;-47
2022/10/03 06:22:38;;;;;;;12.23;3.70;;;;;;;;;;5052695;28;20647;-47
2022/10/03 06:25:22;;;;;;;11.37;3.33;;;;;;;;;;5006532;28;20207;-47
2022/10/03 06:28:18;;;;;;;9.67;2.87;;;;;;;;;;5053074;28;20651;-47
2022/10/03 06:31:15;;;;;;;11.10;3.10;;;;;;;;;;4972042;28;20773;-47
2022/10/03 06:34:00;;;;;;;14.03;3.20;;;;;;;;;;5030435;28;20205;-47
2022/10/03 06:36:39;;;;;;;7.97;2.73;;;;;;;;;;5032855;28;20683;-47
2022/10/03 06:39:29;;;;;;;9.90;3.20;;;;;;;;;;5032973;28;20268;-47
2022/10/03 06:42:19;;;;;;;7.53;2.67;;;;;;;;;;5032981;28;20203;-47
2022/10/03 06:45:15;;;;;;;9.03;3.07;;;;;;;;;;5033013;28;20196;-46
2022/10/03 06:47:51;;;;;;;8.53;3.40;;;;;;;;;;4952446;29;20200;-47
2022/10/03 06:50:34;;;;;;;12.33;4.53;;;;;;;;;;5018705;28;20300;-46
2022/10/03 06:53:11;;;;;;;13.07;4.33;;;;;;;;;;5019391;28;20201;-46
2022/10/03 06:56:07;;;;;;;10.13;2.80;;;;;;;;;;5032626;28;20563;-47
2022/10/03 06:58:42;;;;;;;7.80;2.77;;;;;;;;;;5032689;28;20627;-46
2022/10/03 07:01:24;;;;;;;12.00;3.10;;;;;;;;;;5032517;28;20575;-47
2022/10/03 07:04:03;;;;;;;7.83;2.97;;;;;;;;;;5032443;28;20633;-47
2022/10/03 07:06:47;;;;;;;6.47;3.03;;;;;;;;;;5032524;28;20197;-47
2022/10/03 07:09:28;;;;;;;11.27;2.97;;;;;;;;;;5031765;28;20268;-46
2022/10/03 07:12:05;;;;;;;10.57;2.93;;;;;;;;;;5032464;28;20205;-46
2022/10/03 07:14:54;;;;;;;9.87;3.23;;;;;;;;;;5032464;28;20200;-47
2022/10/03 07:17:27;;;;;;;8.17;2.63;;;;;;;;;;5032198;28;20193;-47
2022/10/03 07:20:02;;;;;;;10.37;3.00;;;;;;;;;;5032211;28;20585;-47
2022/10/03 07:23:03;;;;;;;7.60;2.57;;;;;;;;;;5032118;28;20205;-47
2022/10/03 07:25:39;;;;;;;7.83;3.57;;;;;;;;;;4951867;29;20210;-47
2022/10/03 07:28:21;;;;;;;8.17;3.17;;;;;;;;;;4951952;29;20206;-47
2022/10/03 07:30:53;;;;;;;8.60;2.77;;;;;;;;;;5001480;28;20197;-47
2022/10/03 07:33:27;;;;;;;10.67;2.60;;;;;;;;;;5031781;28;20205;-47
2022/10/03 07:39:18;;;;;;;8.47;2.87;;;;;;;;;;5042471;28;20231;-48
2022/10/03 07:42:08;;;;;;;9.50;3.07;;;;;;;;;;5051923;28;20670;-48
2022/10/03 07:44:49;;;;;;;9.57;2.90;;;;;;;;;;4995687;28;20202;-48
2022/10/03 07:47:33;;;;;;;13.20;2.93;;;;;;;;;;5051738;28;20573;-48
2022/10/03 07:50:16;;;;;;;8.93;3.53;;;;;;;;;;5050946;28;20192;-48
2022/10/03 07:52:57;;;;;;;8.27;2.67;;;;;;;;;;5051872;28;20201;-48
2022/10/03 07:55:44;;;;;;;8.50;2.57;;;;;;;;;;5051825;28;20199;-48
2022/10/03 07:58:26;;;;;;;9.27;2.83;;;;;;;;;;5046363;28;20207;-48
2022/10/03 08:01:05;;;;;;;14.37;2.97;;;;;;;;;;5051654;28;20228;-48
2022/10/03 08:03:53;;;;;;;6.57;2.20;;;;;;;;;;5051573;28;20203;-48
2022/10/03 08:06:25;;;;;;;10.83;2.90;;;;;;;;;;5051588;28;20203;-48
2022/10/03 08:09:12;;;;;;;5.93;2.13;;;;;;;;;;5051576;28;20327;-49
2022/10/03 08:11:49;;;;;;;6.23;2.30;;;;;;;;;;5051748;28;20472;-48
2022/10/03 08:14:18;;;;;;;7.13;2.40;;;;;;;;;;5051554;28;20202;-48
2022/10/03 08:17:01;;;;;;;7.33;3.20;;;;;;;;;;5051560;28;20200;-48
2022/10/03 08:19:45;;;;;;;6.93;2.13;;;;;;;;;;5051398;28;20231;-48
2022/10/03 08:22:15;;;;;;;6.00;2.03;;;;;;;;;;5050411;28;20203;-48
2022/10/03 08:25:02;;;;;;;6.07;2.00;;;;;;;;;;5051569;28;20253;-48
2022/10/03 08:27:34;;;;;;;10.70;2.40;;;;;;;;;;5046711;28;20212;-48
2022/10/03 08:30:17;;;;;;;7.03;2.27;;;;;;;;;;5051378;28;20236;-48
2022/10/03 08:32:58;;;;;;;9.93;2.83;;;;;;;;;;5051146;28;20238;-48
2022/10/03 08:35:34;;;;;;;9.40;2.23;;;;;;;;;;5051248;28;20278;-47
2022/10/03 08:38:14;;;;;;;8.53;2.40;;;;;;;;;;5051310;28;20279;-47
2022/10/03 08:40:57;;;;;;;8.03;2.63;;;;;;;;;;5051188;28;20252;-47
2022/10/03 08:43:42;;;;;;;7.10;2.13;;;;;;;;;;5051510;28;20200;-47
2022/10/03 08:46:17;;;;;;;15.23;2.87;;;;;;;;;;5054994;28;20199;-48
2022/10/03 08:49:00;;;;;;;3.97;2.23;;;;;;;;;;5054952;28;20223;-48
2022/10/03 08:51:46;;;;;;;9.40;2.87;;;;;;;;;;5054471;28;20200;-47
2022/10/03 08:54:22;;;;;;;7.53;1.97;;;;;;;;;;5054796;28;20547;-47
2022/10/03 08:56:55;;;;;;;10.47;2.40;;;;;;;;;;5054908;28;20203;-47
2022/10/03 08:59:37;;;;;;;10.30;2.70;;;;;;;;;;5054627;28;20346;-48
2022/10/03 09:02:19;;;;;;;9.27;2.57;;;;;;;;;;5054703;28;20279;-47
2022/10/03 09:05:01;;;;;;;9.23;2.17;;;;;;;;;;5054651;28;20204;-47
2022/10/03 09:07:46;;;;;;;5.77;1.90;;;;;;;;;;5054504;28;20265;-47
2022/10/03 09:10:34;;;;;;;4.80;2.20;;;;;;;;;;5054550;28;20281;-47
2022/10/03 09:13:27;;;;;;;10.50;2.70;;;;;;;;;;5054568;28;20552;-48
2022/10/03 09:16:12;;;;;;;5.70;1.90;;;;;;;;;;5018762;28;20205;-47
2022/10/03 09:18:52;;;;;;;9.97;2.53;;;;;;;;;;5054376;28;20200;-47
2022/10/03 09:21:37;;;;;;;9.23;2.40;;;;;;;;;;5054131;28;20212;-47
2022/10/03 09:24:13;;;;;;;6.93;2.33;;;;;;;;;;5054411;28;20199;-48
2022/10/03 09:26:54;;;;;;;5.90;2.00;;;;;;;;;;5054321;28;20202;-48
2022/10/03 09:29:32;;;;;;;7.27;2.07;;;;;;;;;;5041462;28;20199;-48
2022/10/03 09:32:16;;;;;;;7.87;2.10;;;;;;;;;;5054118;28;20243;-48
2022/10/03 09:34:58;;;;;;;8.87;2.40;;;;;;;;;;5023794;28;20211;-48
2022/10/03 09:37:33;;;;;;;6.90;2.23;;;;;;;;;;5054018;28;20211;-47
2022/10/03 09:40:14;;;;;;;7.93;2.30;;;;;;;;;;5054052;28;20219;-47
2022/10/03 09:42:59;;;;;;;6.20;2.10;;;;;;;;;;5035989;28;20675;-48
2022/10/03 09:45:58;;;;;;;7.23;1.97;;;;;;;;;;5053810;28;20550;-47
2022/10/03 09:48:31;;;;;;;5.87;2.13;;;;;;;;;;5053760;28;20205;-49
2022/10/03 09:51:08;;;;;;;5.47;1.90;;;;;;;;;;5053906;28;20760;-48
2022/10/03 09:53:43;;;;;;;6.97;2.10;;;;;;;;;;5053790;28;20271;-48
2022/10/03 09:56:26;;;;;;;7.93;2.30;;;;;;;;;;5053486;28;20200;-48
2022/10/03 09:59:04;;;;;;;5.83;2.37;;;;;;;;;;5043431;28;20290;-48
2022/10/03 10:01:32;;;;;;;6.03;2.17;;;;;;;;;;5053377;28;20196;-49
2022/10/03 10:04:19;;;;;;;5.03;2.03;;;;;;;;;;5053552;28;20197;-49
2022/10/03 10:07:00;;;;;;;6.73;2.17;;;;;;;;;;5053890;28;20201;-50
2022/10/03 10:09:38;;;;;;;7.30;2.10;;;;;;;;;;5053350;28;20193;-48
2022/10/03 10:12:22;;;;;;;5.07;1.90;;;;;;;;;;5053555;28;20279;-48
2022/10/03 10:14:58;;;;;;;7.07;2.23;;;;;;;;;;5053547;28;20201;-48
2022/10/03 10:17:53;;;;;;;5.77;2.00;;;;;;;;;;5053251;28;20200;-49
2022/10/03 10:20:25;;;;;;;3.27;1.70;;;;;;;;;;5053132;28;20221;-49
2022/10/03 10:23:17;;;;;;;8.17;2.10;;;;;;;;;;5053240;28;20281;-49
2022/10/03 10:26:02;;;;;;;5.57;2.07;;;;;;;;;;5028630;28;20441;-49
2022/10/03 10:28:47;;;;;;;5.47;1.90;;;;;;;;;;5052995;28;20681;-47
2022/10/03 10:31:26;;;;;;;6.83;2.10;;;;;;;;;;5052954;28;20190;-47
2022/10/03 10:34:25;;;;;;;3.57;1.53;;;;;;;;;;5053007;28;20668;-48
2022/10/03 10:37:10;;;;;;;3.63;1.57;;;;;;;;;;5052965;28;20319;-49
2022/10/03 10:39:57;;;;;;;5.53;2.00;;;;;;;;;;5052809;28;20240;-48
2022/10/03 10:42:42;;;;;;;4.57;1.87;;;;;;;;;;5047613;28;20660;-48
2022/10/03 10:45:23;;;;;;;6.67;1.70;;;;;;;;;;5052843;28;20231;-47
2022/10/03 10:48:05;;;;;;;5.77;1.93;;;;;;;;;;5052964;28;20192;-47
2022/10/03 10:50:46;;;;;;;3.73;1.43;;;;;;;;;;5052673;28;20319;-48
2022/10/03 10:53:27;;;;;;;4.63;1.63;;;;;;;;;;5050201;28;20242;-48
2022/10/03 10:56:14;;;;;;;3.43;1.70;;;;;;;;;;5052777;28;20350;-49
2022/10/03 10:58:58;;;;;;;4.73;1.93;;;;;;;;;;5052588;28;20562;-49
2022/10/03 11:01:55;;;;;;;3.03;1.80;;;;;;;;;;5052409;28;20326;-49
2022/10/03 11:04:41;;;;;;;5.37;1.97;;;;;;;;;;5052420;28;20671;-49
2022/10/03 11:07:16;;;;;;;4.67;1.83;;;;;;;;;;5051636;28;20698;-48
2022/10/03 11:09:49;;;;;;;4.47;1.90;;;;;;;;;;5052529;28;20310;-48
2022/10/03 11:12:39;;;;;;;4.47;1.43;;;;;;;;;;5052319;28;20281;-48
2022/10/03 11:15:23;;;;;;;5.07;2.00;;;;;;;;;;5052498;28;20209;-48
2022/10/03 11:18:00;;;;;;;3.80;2.07;;;;;;;;;;5021952;28;20206;-48
2022/10/03 11:20:43;;;;;;;4.97;1.80;;;;;;;;;;5052185;28;20278;-49
2022/10/03 11:23:28;;;;;;;4.03;1.43;;;;;;;;;;5052295;28;20203;-49
2022/10/03 11:26:20;;;;;;;2.80;1.20;;;;;;;;;;5052167;28;20250;-50
2022/10/03 11:28:56;;;;;;;8.30;1.93;;;;;;;;;;5052145;28;20203;-50
2022/10/03 11:31:40;;;;;;;4.13;1.60;;;;;;;;;;5051996;28;20228;-49
2022/10/03 11:34:30;;;;;;;8.77;1.80;;;;;;;;;;5052036;28;20192;-48
2022/10/03 11:37:05;;;;;;;6.13;1.70;;;;;;;;;;5051768;28;20655;-50
2022/10/03 11:39:37;;;;;;;3.67;1.57;;;;;;;;;;5051637;28;20223;-50
2022/10/03 11:42:10;;;;;;;5.90;2.00;;;;;;;;;;5051825;28;20204;-49
2022/10/03 11:44:39;;;;;;;5.57;1.60;;;;;;;;;;5051706;28;20540;-47
2022/10/03 11:47:20;;;;;;;4.00;1.47;;;;;;;;;;5051758;28;20197;-48
2022/10/03 11:50:00;;;;;;;5.30;1.80;;;;;;;;;;5051883;28;20624;-50
2022/10/03 11:52:30;;;;;;;6.83;2.00;;;;;;;;;;5051634;28;20283;-48
2022/10/03 11:55:04;;;;;;;6.83;1.90;;;;;;;;;;5051873;28;20200;-49
2022/10/03 11:57:35;;;;;;;6.23;1.80;;;;;;;;;;5051662;28;20598;-48
2022/10/03 12:00:03;;;;;;;4.83;1.83;;;;;;;;;;5051642;28;20286;-47
2022/10/03 12:02:42;;;;;;;6.20;1.87;;;;;;;;;;5051497;28;20287;-48
2022/10/03 12:05:14;;;;;;;6.13;1.90;;;;;;;;;;5051586;28;20200;-49
2022/10/03 12:10:38;;;;;;;8.70;2.27;;;;;;;;;;5051482;28;20218;-48
2022/10/03 12:13:04;;;;;;;3.33;1.60;;;;;;;;;;5051381;28;20203;-49
2022/10/03 12:15:35;;;;;;;4.63;1.63;;;;;;;;;;5051332;28;20215;-49
2022/10/03 12:18:10;;;;;;;4.67;1.67;;;;;;;;;;5052914;28;20287;-48
2022/10/03 12:20:57;;;;;;;4.83;1.50;;;;;;;;;;5055259;28;20823;-49
2022/10/03 12:23:31;;;;;;;8.40;1.60;;;;;;;;;;5055447;28;20572;-48
2022/10/03 12:26:01;;;;;;;2.90;1.30;;;;;;;;;;5055583;28;20199;-49
2022/10/03 12:28:29;;;;;;;3.60;1.47;;;;;;;;;;5055383;28;20188;-49
2022/10/03 12:31:00;;;;;;;6.23;1.70;;;;;;;;;;5055291;28;20200;-49
2022/10/03 12:33:36;;;;;;;7.20;1.73;;;;;;;;;;5055204;28;20200;-48
2022/10/03 12:36:05;;;;;;;3.07;1.40;;;;;;;;;;5055328;28;20201;-48
2022/10/03 12:38:43;;;;;;;4.20;1.33;;;;;;;;;;5055080;28;20204;-48
2022/10/03 12:41:18;;;;;;;3.77;1.40;;;;;;;;;;5055176;28;20228;-49
2022/10/03 12:43:52;;;;;;;4.07;1.93;;;;;;;;;;5055169;28;20199;-48
2022/10/03 12:46:22;;;;;;;3.23;1.60;;;;;;;;;;5055206;28;20208;-48
2022/10/03 12:48:54;;;;;;;4.33;1.40;;;;;;;;;;5055150;28;20202;-49
2022/10/03 12:51:26;;;;;;;5.23;1.70;;;;;;;;;;5054963;28;20699;-48
2022/10/03 12:54:02;;;;;;;5.63;1.40;;;;;;;;;;5055130;28;20200;-49
2022/10/03 12:56:34;;;;;;;4.67;1.63;;;;;;;;;;5054832;28;20215;-48
2022/10/03 12:59:06;;;;;;;3.97;1.30;;;;;;;;;;5054870;28;20581;-48
2022/10/03 13:01:44;;;;;;;5.57;1.77;;;;;;;;;;5054909;28;20224;-49
2022/10/03 13:04:18;;;;;;;4.70;1.40;;;;;;;;;;5054846;28;20655;-48
2022/10/03 13:06:53;;;;;;;5.10;1.60;;;;;;;;;;5054766;28;20187;-49
2022/10/03 13:09:29;;;;;;;6.73;1.50;;;;;;;;;;5054575;28;20290;-48
2022/10/03 13:11:58;;;;;;;2.90;1.43;;;;;;;;;;5054527;28;20234;-49
2022/10/03 13:14:35;;;;;;;8.00;1.70;;;;;;;;;;5054557;28;20282;-49
2022/10/03 13:17:08;;;;;;;3.27;1.37;;;;;;;;;;5054467;28;20547;-49
2022/10/03 13:19:39;;;;;;;3.40;1.50;;;;;;;;;;5054245;28;20228;-49
2022/10/03 13:22:18;;;;;;;5.47;1.70;;;;;;;;;;5054415;28;20214;-49
2022/10/03 13:24:50;;;;;;;4.67;1.60;;;;;;;;;;5054396;28;20249;-49
2022/10/03 13:27:28;;;;;;;2.87;1.53;;;;;;;;;;5054437;28;20282;-49
2022/10/03 13:29:56;;;;;;;5.00;1.37;;;;;;;;;;5054638;28;20196;-49
2022/10/03 13:32:29;;;;;;;4.67;1.50;;;;;;;;;;5053961;28;20276;-49
2022/10/03 13:35:57;;;;;;;5.00;1.70;;;;;;;;;;5054183;28;20198;-49
2022/10/03 13:37:58;;;;;;;5.73;1.37;;;;;;;;;;5053990;28;20225;-49
2022/10/03 13:40:28;;;;;;;5.53;1.50;;;;;;;;;;5054016;28;20253;-49
2022/10/03 13:42:54;;;;;;;5.43;1.60;;;;;;;;;;5054164;28;20206;-49
2022/10/03 13:45:24;;;;;;;2.70;1.20;;;;;;;;;;5053981;28;20230;-46
2022/10/03 13:47:51;;;;;;;4.23;1.73;;;;;;;;;;5053986;28;20276;-49
2022/10/03 13:50:19;;;;;;;3.73;1.43;;;;;;;;;;5053895;28;20234;-49
2022/10/03 13:52:49;;;;;;;5.20;1.50;;;;;;;;;;5053794;28;20698;-49
2022/10/03 13:55:25;;;;;;;3.97;1.90;;;;;;;;;;5053755;28;20197;-49
2022/10/03 13:58:08;;;;;;;3.20;1.33;;;;;;;;;;5053926;28;20199;-49
2022/10/03 14:00:40;;;;;;;4.33;1.30;;;;;;;;;;5053483;28;20225;-49
2022/10/03 14:03:12;;;;;;;2.73;1.20;;;;;;;;;;5053660;28;20268;-48
2022/10/03 14:05:47;;;;;;;4.00;1.33;;;;;;;;;;5053759;28;20229;-48
2022/10/03 14:08:20;;;;;;;5.03;1.40;;;;;;;;;;5053517;28;20226;-47
2022/10/03 14:10:58;;;;;;;3.60;1.60;;;;;;;;;;5053626;28;20216;-47
2022/10/03 14:13:29;;;;;;;3.13;1.43;;;;;;;;;;5053421;28;20202;-48
2022/10/03 14:15:58;;;;;;;3.47;1.30;;;;;;;;;;5053555;28;20222;-47
2022/10/03 14:18:39;;;;;;;3.77;1.57;;;;;;;;;;5053160;28;20699;-47
2022/10/03 14:21:23;;;;;;;4.10;1.17;;;;;;;;;;5053272;28;20225;-47
2022/10/03 14:23:52;;;;;;;2.93;1.20;;;;;;;;;;5053391;28;20222;-47
2022/10/03 14:26:20;;;;;;;5.43;1.63;;;;;;;;;;5053168;28;20208;-47
2022/10/03 14:28:52;;;;;;;5.30;1.33;;;;;;;;;;5053374;28;20281;-48
2022/10/03 14:31:23;;;;;;;4.93;1.73;;;;;;;;;;5052758;28;20701;-47
2022/10/03 14:33:53;;;;;;;5.20;1.57;;;;;;;;;;5053059;28;20690;-48
2022/10/03 14:36:29;;;;;;;4.70;1.67;;;;;;;;;;5052883;28;20252;-47
2022/10/03 14:39:01;;;;;;;5.43;1.60;;;;;;;;;;5053050;28;20198;-47
2022/10/03 14:41:35;;;;;;;6.00;2.00;;;;;;;;;;5051974;28;20268;-47
2022/10/03 14:44:05;;;;;;;5.53;1.63;;;;;;;;;;5052955;28;20216;-49
2022/10/03 14:46:32;;;;;;;5.93;1.50;;;;;;;;;;5052740;28;20257;-49
2022/10/03 14:49:02;;;;;;;3.57;1.47;;;;;;;;;;5052897;28;20210;-49
2022/10/03 14:51:30;;;;;;;3.83;1.50;;;;;;;;;;5052629;28;20250;-49
2022/10/03 14:54:01;;;;;;;5.10;1.50;;;;;;;;;;5052658;28;20250;-49
2022/10/03 14:56:27;;;;;;;4.13;1.40;;;;;;;;;;5052568;28;20276;-48
2022/10/03 14:58:54;;;;;;;4.37;1.40;;;;;;;;;;5052598;28;20245;-47
2022/10/03 15:01:23;;;;;;;7.10;1.70;;;;;;;;;;5052421;28;20276;-47
2022/10/03 15:04:01;;;;;;;3.07;1.50;;;;;;;;;;5089411;28;20543;-47
2022/10/03 15:06:35;;;;;;;4.60;1.60;;;;;;;;;;5089120;28;20208;-46
2022/10/03 15:09:03;;;;;;;3.43;1.63;;;;;;;;;;5089226;28;20234;-48
2022/10/03 15:11:31;;;;;;;4.97;2.00;;;;;;;;;;5089205;28;20187;-47
2022/10/03 15:14:01;;;;;;;5.30;1.67;;;;;;;;;;5089428;28;20205;-49
2022/10/03 15:16:31;;;;;;;3.67;1.63;;;;;;;;;;5089117;28;20204;-47
2022/10/03 15:18:59;;;;;;;3.70;1.77;;;;;;;;;;5089127;28;20686;-47
2022/10/03 15:21:27;;;;;;;4.27;2.07;;;;;;;;;;5088846;28;20197;-47
2022/10/03 15:23:55;;;;;;;4.70;2.37;;;;;;;;;;5089347;28;20410;-47
2022/10/03 15:26:23;;;;;;;4.10;1.60;;;;;;;;;;5088907;28;20236;-47
2022/10/03 15:28:50;;;;;;;2.93;1.10;;;;;;;;;;5089816;28;20291;-48
2022/10/03 15:31:21;;;;;;;3.60;1.40;;;;;;;;;;5088910;28;20202;-48
2022/10/03 15:33:50;;;;;;;3.63;1.47;;;;;;;;;;5088871;28;20245;-48
2022/10/03 15:36:21;;;;;;;4.83;1.50;;;;;;;;;;5088611;28;20218;-48
2022/10/03 15:38:51;;;;;;;4.03;1.30;;;;;;;;;;5088800;28;20201;-48
2022/10/03 15:41:21;;;;;;;2.67;1.40;;;;;;;;;;5088705;28;20204;-48